Time,TemperatureF,DewpointF,PressureIn,WindDirection,WindDirectionDegrees,WindSpeedMPH,WindSpeedGustMPH,Humidity,HourlyPrecipIn,Conditions,Clouds,dailyrainin,SoftwareType,DateUTC
2013-08-02 00:00:00,76.0,73.8,29.93,SE,145,0.0,0.0,93,0.00,,,1.30,Wunderground v.1.15,2013-08-02 04:00:00,
2013-08-02 00:05:00,76.0,73.8,29.93,SE,145,0.0,0.0,93,0.00,,,0.00,Wunderground v.1.15,2013-08-02 04:05:00,
2013-08-02 00:10:00,76.0,73.8,29.93,SE,145,0.0,0.0,93,0.00,,,0.00,Wunderground v.1.15,2013-08-02 04:10:00,
2013-08-02 00:15:00,76.0,73.8,29.93,SE,145,0.0,0.0,93,0.00,,,0.00,Wunderground v.1.15,2013-08-02 04:15:00,
2013-08-02 00:20:00,76.0,73.8,29.92,SSE,158,0.0,1.0,93,0.00,,,0.00,Wunderground v.1.15,2013-08-02 04:20:00,
2013-08-02 00:30:00,76.0,73.8,29.92,SSW,211,1.0,1.0,93,0.00,,,0.00,Wunderground v.1.15,2013-08-02 04:30:00,
2013-08-02 00:40:00,76.0,74.1,29.93,SW,221,0.0,0.0,94,0.00,,,0.00,Wunderground v.1.15,2013-08-02 04:40:00,
2013-08-02 00:50:00,76.0,74.1,29.93,SW,221,0.0,1.0,94,0.00,,,0.00,Wunderground v.1.15,2013-08-02 04:50:00,
2013-08-02 00:55:00,76.0,74.1,29.92,SW,221,0.0,1.0,94,0.00,,,0.00,Wunderground v.1.15,2013-08-02 04:55:00,
2013-08-02 01:00:00,76.0,74.1,29.93,SW,221,0.0,0.0,94,0.00,,,0.00,Wunderground v.1.15,2013-08-02 05:00:00,
2013-08-02 01:10:00,76.0,74.1,29.93,SW,221,0.0,2.0,94,0.00,,,0.00,Wunderground v.1.15,2013-08-02 05:10:00,
2013-08-02 01:15:00,75.9,74.0,29.93,SW,221,0.0,2.0,94,0.00,,,0.00,Wunderground v.1.15,2013-08-02 05:15:00,
2013-08-02 01:25:00,75.8,73.9,29.93,SW,221,0.0,0.0,94,0.00,,,0.00,Wunderground v.1.15,2013-08-02 05:25:00,
2013-08-02 01:30:00,75.8,73.9,29.92,SW,221,0.0,0.0,94,0.00,,,0.00,Wunderground v.1.15,2013-08-02 05:30:00,
2013-08-02 01:40:00,75.7,73.8,29.92,SW,221,0.0,0.0,94,0.00,,,0.00,Wunderground v.1.15,2013-08-02 05:40:00,
2013-08-02 01:45:00,75.7,73.8,29.92,SW,221,0.0,0.0,94,0.00,,,0.00,Wunderground v.1.15,2013-08-02 05:45:00,
2013-08-02 01:50:00,75.6,73.8,29.92,SW,221,0.0,0.0,94,0.00,,,0.00,Wunderground v.1.15,2013-08-02 05:50:00,
2013-08-02 02:00:00,75.5,74.0,29.92,SW,221,0.0,0.0,95,0.00,,,0.00,Wunderground v.1.15,2013-08-02 06:00:00,
2013-08-02 02:10:00,75.3,73.8,29.91,SW,221,0.0,0.0,95,0.00,,,0.00,Wunderground v.1.15,2013-08-02 06:10:00,
2013-08-02 02:15:00,75.3,73.8,29.91,SW,221,0.0,0.0,95,0.00,,,0.00,Wunderground v.1.15,2013-08-02 06:15:00,
2013-08-02 02:25:00,75.2,73.7,29.91,SW,221,0.0,0.0,95,0.00,,,0.00,Wunderground v.1.15,2013-08-02 06:25:00,
2013-08-02 02:30:00,75.1,73.6,29.90,SW,221,0.0,0.0,95,0.00,,,0.00,Wunderground v.1.15,2013-08-02 06:30:00,
2013-08-02 02:40:00,75.0,73.5,29.90,SW,221,0.0,0.0,95,0.00,,,0.00,Wunderground v.1.15,2013-08-02 06:40:00,
2013-08-02 02:50:00,74.9,73.4,29.90,SW,221,0.0,0.0,95,0.00,,,0.00,Wunderground v.1.15,2013-08-02 06:50:00,
2013-08-02 02:55:00,74.8,73.3,29.90,SW,221,0.0,0.0,95,0.00,,,0.00,Wunderground v.1.15,2013-08-02 06:55:00,
2013-08-02 03:05:00,74.6,73.1,29.90,SW,221,0.0,0.0,95,0.00,,,0.00,Wunderground v.1.15,2013-08-02 07:05:00,
2013-08-02 03:10:00,74.5,73.0,29.90,SW,221,0.0,0.0,95,0.00,,,0.00,Wunderground v.1.15,2013-08-02 07:10:00,
2013-08-02 03:20:00,74.4,72.9,29.90,SW,221,0.0,0.0,95,0.00,,,0.00,Wunderground v.1.15,2013-08-02 07:20:00,
2013-08-02 03:30:00,74.3,73.1,29.90,SW,221,0.0,0.0,96,0.00,,,0.00,Wunderground v.1.15,2013-08-02 07:30:00,
2013-08-02 03:40:00,74.2,72.7,29.90,SW,221,0.0,0.0,95,0.00,,,0.00,Wunderground v.1.15,2013-08-02 07:40:00,
2013-08-02 03:50:00,74.2,73.0,29.91,SW,221,0.0,0.0,96,0.00,,,0.00,Wunderground v.1.15,2013-08-02 07:50:00,
2013-08-02 04:00:00,74.2,73.0,29.91,SW,221,0.0,0.0,96,0.00,,,0.00,Wunderground v.1.15,2013-08-02 08:00:00,
2013-08-02 04:10:00,74.0,72.8,29.91,SW,221,0.0,0.0,96,0.00,,,0.00,Wunderground v.1.15,2013-08-02 08:10:00,
2013-08-02 04:20:00,74.1,72.9,29.91,SW,221,0.0,0.0,96,0.00,,,0.00,Wunderground v.1.15,2013-08-02 08:20:00,
2013-08-02 04:25:00,74.1,72.9,29.91,SW,221,0.0,0.0,96,0.00,,,0.00,Wunderground v.1.15,2013-08-02 08:25:00,
2013-08-02 04:35:00,74.0,72.8,29.91,SW,221,0.0,0.0,96,0.00,,,0.00,Wunderground v.1.15,2013-08-02 08:35:00,
2013-08-02 04:40:00,73.9,72.7,29.91,SW,221,0.0,0.0,96,0.00,,,0.00,Wunderground v.1.15,2013-08-02 08:40:00,
2013-08-02 04:50:00,73.9,72.7,29.91,SW,221,0.0,0.0,96,0.00,,,0.00,Wunderground v.1.15,2013-08-02 08:50:00,
2013-08-02 04:55:00,73.9,72.7,29.91,SW,221,0.0,0.0,96,0.00,,,0.00,Wunderground v.1.15,2013-08-02 08:55:00,
2013-08-02 05:05:00,73.8,72.6,29.91,SW,221,0.0,0.0,96,0.00,,,0.00,Wunderground v.1.15,2013-08-02 09:05:00,
2013-08-02 05:14:00,73.8,72.6,29.90,SW,221,0.0,0.0,96,0.00,,,0.00,Wunderground v.1.15,2013-08-02 09:14:00,
2013-08-02 05:20:00,73.8,72.6,29.91,SW,221,0.0,0.0,96,0.00,,,0.00,Wunderground v.1.15,2013-08-02 09:20:00,
2013-08-02 05:30:00,73.8,72.9,29.91,SSE,161,0.0,0.0,97,0.00,,,0.00,Wunderground v.1.15,2013-08-02 09:30:00,
2013-08-02 05:40:00,73.9,73.0,29.91,SSE,161,0.0,0.0,97,0.00,,,0.00,Wunderground v.1.15,2013-08-02 09:40:00,
2013-08-02 05:50:00,73.9,73.0,29.91,SSE,161,0.0,0.0,97,0.00,,,0.00,Wunderground v.1.15,2013-08-02 09:50:00,
2013-08-02 06:00:00,73.9,73.0,29.91,SSE,161,0.0,0.0,97,0.00,,,0.00,Wunderground v.1.15,2013-08-02 10:00:00,
2013-08-02 06:10:00,73.9,73.0,29.91,SSE,163,0.0,0.0,97,0.00,,,0.00,Wunderground v.1.15,2013-08-02 10:10:00,
2013-08-02 06:20:00,74.0,73.1,29.92,SSW,197,0.0,0.0,97,0.00,,,0.00,Wunderground v.1.15,2013-08-02 10:20:00,
2013-08-02 06:30:00,73.8,72.9,29.92,SSW,197,0.0,0.0,97,0.00,,,0.00,Wunderground v.1.15,2013-08-02 10:30:00,
2013-08-02 06:40:00,73.8,72.9,29.92,SSW,209,0.0,0.0,97,0.00,,,0.00,Wunderground v.1.15,2013-08-02 10:40:00,
2013-08-02 06:50:00,73.9,73.0,29.93,NNE,15,0.0,0.0,97,0.00,,,0.00,Wunderground v.1.15,2013-08-02 10:50:00,
2013-08-02 07:00:00,74.1,73.2,29.93,North,9,0.0,1.0,97,0.00,,,0.00,Wunderground v.1.15,2013-08-02 11:00:00,
2013-08-02 07:10:00,74.3,73.4,29.94,North,9,0.0,1.0,97,0.00,,,0.00,Wunderground v.1.15,2013-08-02 11:10:00,
2013-08-02 07:20:00,74.5,73.6,29.94,NNW,348,0.0,0.0,97,0.00,,,0.00,Wunderground v.1.15,2013-08-02 11:20:00,
2013-08-02 07:30:00,74.8,73.9,29.94,SW,218,0.0,0.0,97,0.00,,,0.00,Wunderground v.1.15,2013-08-02 11:30:00,
2013-08-02 07:40:00,75.0,74.1,29.95,SW,215,0.0,0.0,97,0.00,,,0.00,Wunderground v.1.15,2013-08-02 11:40:00,
2013-08-02 07:49:00,75.2,74.3,29.95,WSW,250,0.0,3.0,97,0.00,,,0.00,Wunderground v.1.15,2013-08-02 11:49:00,
2013-08-02 07:55:00,75.4,74.2,29.95,WSW,250,1.0,3.0,96,0.00,,,0.00,Wunderground v.1.15,2013-08-02 11:55:00,
2013-08-02 08:05:00,75.7,74.5,29.95,SSE,168,1.0,1.0,96,0.00,,,0.00,Wunderground v.1.15,2013-08-02 12:05:00,
2013-08-02 08:15:00,76.1,74.6,29.96,SSW,211,1.0,2.0,95,0.00,,,0.00,Wunderground v.1.15,2013-08-02 12:15:00,
2013-08-02 08:25:00,76.9,74.7,29.96,SSW,195,1.0,1.0,93,0.00,,,0.00,Wunderground v.1.15,2013-08-02 12:25:00,
2013-08-02 08:35:00,77.7,74.9,29.96,West,263,1.0,1.0,91,0.00,,,0.00,Wunderground v.1.15,2013-08-02 12:35:00,
2013-08-02 08:45:00,78.5,75.0,29.97,West,265,1.0,3.0,89,0.00,,,0.00,Wunderground v.1.15,2013-08-02 12:45:00,
2013-08-02 08:50:00,78.7,74.8,29.97,West,265,1.0,1.0,88,0.00,,,0.00,Wunderground v.1.15,2013-08-02 12:50:00,
2013-08-02 09:00:00,79.4,75.5,29.97,West,271,1.0,1.0,88,0.00,,,0.00,Wunderground v.1.15,2013-08-02 13:00:00,
2013-08-02 09:10:00,79.8,75.2,29.97,SSW,198,2.0,2.0,86,0.00,,,0.00,Wunderground v.1.15,2013-08-02 13:10:00,
2013-08-02 09:20:00,80.4,75.5,29.98,SSW,197,2.0,3.0,85,0.00,,,0.00,Wunderground v.1.15,2013-08-02 13:20:00,
2013-08-02 09:25:00,80.6,75.7,29.98,West,270,2.0,3.0,85,0.00,,,0.00,Wunderground v.1.15,2013-08-02 13:25:00,
2013-08-02 09:35:00,80.7,75.4,29.98,South,186,3.0,3.0,84,0.00,,,0.00,Wunderground v.1.15,2013-08-02 13:35:00,
2013-08-02 09:44:00,80.7,75.4,29.98,West,281,2.0,3.0,84,0.00,,,0.00,Wunderground v.1.15,2013-08-02 13:44:00,
2013-08-02 09:50:00,80.9,76.0,29.98,SW,221,2.0,2.0,85,0.00,,,0.00,Wunderground v.1.15,2013-08-02 13:50:00,
2013-08-02 10:00:00,81.7,76.4,29.98,West,262,2.0,2.0,84,0.00,,,0.00,Wunderground v.1.15,2013-08-02 14:00:00,
2013-08-02 10:10:00,82.3,75.9,29.98,South,191,1.0,1.0,81,0.00,,,0.00,Wunderground v.1.15,2013-08-02 14:10:00,
2013-08-02 10:20:00,82.9,76.5,29.99,SSE,162,1.0,1.0,81,0.00,,,0.00,Wunderground v.1.15,2013-08-02 14:20:00,
2013-08-02 10:30:00,83.0,76.6,29.99,West,275,2.0,2.0,81,0.00,,,0.00,Wunderground v.1.15,2013-08-02 14:30:00,
2013-08-02 10:35:00,83.0,76.2,29.99,West,270,2.0,3.0,80,0.00,,,0.00,Wunderground v.1.15,2013-08-02 14:35:00,
2013-08-02 10:45:00,83.1,76.7,29.99,West,279,2.0,5.0,81,0.00,,,0.00,Wunderground v.1.15,2013-08-02 14:45:00,
2013-08-02 10:50:00,83.4,76.6,29.99,WSW,252,2.0,2.0,80,0.00,,,0.00,Wunderground v.1.15,2013-08-02 14:50:00,
2013-08-02 11:00:00,84.1,76.9,29.98,WNW,297,2.0,4.0,79,0.00,,,0.00,Wunderground v.1.15,2013-08-02 15:00:00,
2013-08-02 11:05:00,84.3,76.7,29.98,SSW,207,2.0,4.0,78,0.00,,,0.00,Wunderground v.1.15,2013-08-02 15:05:00,
2013-08-02 11:15:00,84.8,75.6,29.98,SE,126,1.0,3.0,74,0.00,,,0.00,Wunderground v.1.15,2013-08-02 15:15:00,
2013-08-02 11:25:00,85.2,76.0,29.97,West,276,2.0,3.0,74,0.00,,,0.00,Wunderground v.1.15,2013-08-02 15:25:00,
2013-08-02 11:30:00,85.3,75.2,29.98,SSE,150,2.0,5.0,72,0.00,,,0.00,Wunderground v.1.15,2013-08-02 15:30:00,
2013-08-02 11:40:00,85.9,75.4,29.97,West,277,3.0,3.0,71,0.00,,,0.00,Wunderground v.1.15,2013-08-02 15:40:00,
2013-08-02 11:50:00,85.6,75.5,29.97,WNW,290,2.0,2.0,72,0.00,,,0.00,Wunderground v.1.15,2013-08-02 15:50:00,
2013-08-02 12:00:00,86.5,75.5,29.97,WNW,285,2.0,2.0,70,0.00,,,0.00,Wunderground v.1.15,2013-08-02 16:00:00,
2013-08-02 12:10:00,86.1,77.2,29.96,ESE,111,3.0,5.0,75,0.00,,,0.00,Wunderground v.1.15,2013-08-02 16:10:00,
2013-08-02 12:15:00,85.9,77.1,29.97,South,170,3.0,6.0,75,0.00,,,0.00,Wunderground v.1.15,2013-08-02 16:15:00,
2013-08-02 12:20:00,84.9,76.1,29.97,ENE,68,4.0,4.0,75,0.00,,,0.00,Wunderground v.1.15,2013-08-02 16:20:00,
2013-08-02 12:29:00,84.3,76.3,29.97,ESE,111,2.0,2.0,77,0.00,,,0.00,Wunderground v.1.15,2013-08-02 16:29:00,
2013-08-02 12:35:00,84.1,75.7,29.96,SE,128,3.0,5.0,76,0.00,,,0.00,Wunderground v.1.15,2013-08-02 16:35:00,
2013-08-02 12:45:00,84.9,76.5,29.96,ESE,120,3.0,5.0,76,0.00,,,0.00,Wunderground v.1.15,2013-08-02 16:45:00,
2013-08-02 12:50:00,85.2,76.4,29.96,SSW,206,3.0,5.0,75,0.00,,,0.00,Wunderground v.1.15,2013-08-02 16:50:00,
2013-08-02 13:00:00,85.2,76.4,29.96,ESE,120,4.0,5.0,75,0.00,,,0.00,Wunderground v.1.15,2013-08-02 17:00:00,
2013-08-02 13:10:00,84.5,76.1,29.97,SE,128,4.0,4.0,76,0.00,,,0.00,Wunderground v.1.15,2013-08-02 17:10:00,
2013-08-02 13:15:00,84.2,76.2,29.97,SE,140,4.0,4.0,77,0.00,,,0.00,Wunderground v.1.15,2013-08-02 17:15:00,
2013-08-02 13:25:00,84.6,76.2,29.97,South,189,3.0,3.0,76,0.00,,,0.00,Wunderground v.1.15,2013-08-02 17:25:00,
2013-08-02 13:30:00,85.2,76.8,29.97,East,79,3.0,3.0,76,0.00,,,0.00,Wunderground v.1.15,2013-08-02 17:30:00,
2013-08-02 13:40:00,85.2,76.4,29.97,SE,144,3.0,3.0,75,0.00,,,0.00,Wunderground v.1.15,2013-08-02 17:40:00,
2013-08-02 13:50:00,84.6,76.6,29.97,ESE,111,3.0,5.0,77,0.00,,,0.00,Wunderground v.1.15,2013-08-02 17:50:00,
2013-08-02 13:55:00,84.5,76.5,29.97,SE,131,3.0,5.0,77,0.00,,,0.00,Wunderground v.1.15,2013-08-02 17:55:00,
2013-08-02 14:05:00,85.1,76.3,29.96,East,82,2.0,5.0,75,0.00,,,0.00,Wunderground v.1.15,2013-08-02 18:05:00,
2013-08-02 14:15:00,85.9,77.1,29.96,South,190,3.0,3.0,75,0.00,,,0.00,Wunderground v.1.15,2013-08-02 18:15:00,
2013-08-02 14:25:00,84.7,77.8,29.96,SE,133,3.0,5.0,80,0.00,,,0.00,Wunderground v.1.15,2013-08-02 18:25:00,
2013-08-02 14:35:00,84.0,76.8,29.96,WNW,283,3.0,3.0,79,0.00,,,0.00,Wunderground v.1.15,2013-08-02 18:35:00,
2013-08-02 14:40:00,83.5,77.1,29.96,ESE,119,3.0,3.0,81,0.00,,,0.01,Wunderground v.1.15,2013-08-02 18:40:00,
2013-08-02 14:50:00,83.0,77.3,29.96,SE,138,2.0,2.0,83,0.00,,,0.01,Wunderground v.1.15,2013-08-02 18:50:00,
2013-08-02 15:00:00,82.8,78.2,29.95,SE,136,1.0,1.0,86,0.05,,,0.02,Wunderground v.1.15,2013-08-02 19:00:00,
2013-08-02 15:10:00,82.0,77.4,29.96,South,172,1.0,1.0,86,0.91,,,0.17,Wunderground v.1.15,2013-08-02 19:10:00,
2013-08-02 15:20:00,80.8,77.3,29.95,SE,142,1.0,1.0,89,0.24,,,0.33,Wunderground v.1.15,2013-08-02 19:20:00,
2013-08-02 15:30:00,80.2,77.3,29.95,SE,145,1.0,2.0,91,0.71,,,0.35,Wunderground v.1.15,2013-08-02 19:30:00,
2013-08-02 15:35:00,80.1,77.6,29.94,ESE,104,2.0,4.0,92,0.54,,,0.39,Wunderground v.1.15,2013-08-02 19:35:00,
2013-08-02 15:45:00,79.4,76.9,29.95,East,89,2.0,3.0,92,0.09,,,0.40,Wunderground v.1.15,2013-08-02 19:45:00,
2013-08-02 15:55:00,79.0,75.8,29.95,ESE,105,3.0,3.0,90,0.04,,,0.41,Wunderground v.1.15,2013-08-02 19:55:00,
2013-08-02 16:05:00,78.6,75.4,29.95,ESE,123,3.0,3.0,90,0.04,,,0.41,Wunderground v.1.15,2013-08-02 20:05:00,
2013-08-02 16:10:00,78.5,75.3,29.95,ESE,111,2.0,2.0,90,0.04,,,0.41,Wunderground v.1.15,2013-08-02 20:10:00,
2013-08-02 16:20:00,79.8,77.3,29.94,ESE,103,2.0,3.0,92,0.00,,,0.41,Wunderground v.1.15,2013-08-02 20:20:00,
2013-08-02 16:30:00,81.3,78.8,29.94,ESE,112,3.0,3.0,92,0.00,,,0.41,Wunderground v.1.15,2013-08-02 20:30:00,
2013-08-02 16:35:00,81.7,78.5,29.94,ESE,103,3.0,4.0,90,0.00,,,0.41,Wunderground v.1.15,2013-08-02 20:35:00,
2013-08-02 16:45:00,82.3,78.4,29.94,SSW,202,3.0,3.0,88,0.00,,,0.41,Wunderground v.1.15,2013-08-02 20:45:00,
2013-08-02 16:50:00,82.6,78.3,29.94,South,188,3.0,3.0,87,0.00,,,0.41,Wunderground v.1.15,2013-08-02 20:50:00,
2013-08-02 17:00:00,82.3,78.0,29.94,SE,136,3.0,6.0,87,0.00,,,0.41,Wunderground v.1.15,2013-08-02 21:00:00,
2013-08-02 17:10:00,81.4,77.8,29.94,SSE,152,3.0,3.0,89,0.00,,,0.41,Wunderground v.1.15,2013-08-02 21:10:00,
2013-08-02 17:20:00,80.4,77.2,29.95,ESE,123,3.0,3.0,90,1.66,,,0.56,Wunderground v.1.15,2013-08-02 21:20:00,
2013-08-02 17:30:00,79.1,76.6,29.95,SSE,150,3.0,4.0,92,0.07,,,0.57,Wunderground v.1.15,2013-08-02 21:30:00,
2013-08-02 17:39:00,79.1,77.2,29.95,SE,126,3.0,3.0,94,0.00,,,0.57,Wunderground v.1.15,2013-08-02 21:39:00,
2013-08-02 17:44:00,79.0,76.5,29.95,SE,128,3.0,5.0,92,0.00,,,0.57,Wunderground v.1.15,2013-08-02 21:44:00,
2013-08-02 17:50:00,79.0,76.8,29.96,South,182,3.0,3.0,93,0.00,,,0.57,Wunderground v.1.15,2013-08-02 21:50:00,
2013-08-02 18:00:00,79.1,76.9,29.96,East,100,3.0,3.0,93,0.00,,,0.57,Wunderground v.1.15,2013-08-02 22:00:00,
2013-08-02 18:10:00,79.7,77.5,29.96,ESE,119,3.0,4.0,93,0.00,,,0.57,Wunderground v.1.15,2013-08-02 22:10:00,
2013-08-02 18:20:00,79.7,77.5,29.96,ESE,118,3.0,4.0,93,0.00,,,0.57,Wunderground v.1.15,2013-08-02 22:20:00,
2013-08-02 18:25:00,79.7,77.5,29.95,SE,143,3.0,4.0,93,0.00,,,0.57,Wunderground v.1.15,2013-08-02 22:25:00,
2013-08-02 18:35:00,79.9,77.4,29.96,ESE,112,3.0,4.0,92,0.00,,,0.57,Wunderground v.1.15,2013-08-02 22:35:00,
2013-08-02 18:45:00,79.8,77.3,29.96,South,177,3.0,4.0,92,0.00,,,0.57,Wunderground v.1.15,2013-08-02 22:45:00,
2013-08-02 18:55:00,79.6,77.1,29.96,South,169,3.0,6.0,92,0.00,,,0.57,Wunderground v.1.15,2013-08-02 22:55:00,
2013-08-02 19:00:00,79.5,77.0,29.97,ESE,120,3.0,4.0,92,0.00,,,0.57,Wunderground v.1.15,2013-08-02 23:00:00,
2013-08-02 19:10:00,79.3,76.8,29.97,SSE,156,2.0,2.0,92,0.00,,,0.57,Wunderground v.1.15,2013-08-02 23:10:00,
2013-08-02 19:15:00,79.3,76.8,29.97,ENE,60,2.0,4.0,92,0.00,,,0.57,Wunderground v.1.15,2013-08-02 23:15:00,
2013-08-02 19:20:00,79.1,76.9,29.98,SSE,165,3.0,3.0,93,0.58,,,0.60,Wunderground v.1.15,2013-08-02 23:20:00,
2013-08-02 19:30:00,78.6,76.4,29.99,SSE,158,2.0,3.0,93,4.30,,,0.84,Wunderground v.1.15,2013-08-02 23:30:00,
2013-08-02 19:40:00,78.3,76.4,29.98,ESE,113,2.0,2.0,94,0.28,,,1.02,Wunderground v.1.15,2013-08-02 23:40:00,
2013-08-02 19:50:00,78.3,76.4,29.99,East,92,1.0,2.0,94,0.08,,,1.03,Wunderground v.1.15,2013-08-02 23:50:00,
2013-08-02 19:55:00,78.3,76.4,29.99,SSE,151,1.0,2.0,94,0.05,,,1.03,Wunderground v.1.15,2013-08-02 23:55:00,
2013-08-02 20:00:00,78.3,76.7,29.99,SSE,151,1.0,1.0,95,0.04,,,1.04,Wunderground v.1.15,2013-08-03 00:00:00,
2013-08-02 20:10:00,78.2,76.6,29.98,SSE,151,0.0,0.0,95,0.04,,,1.04,Wunderground v.1.15,2013-08-03 00:10:00,
2013-08-02 20:19:00,78.2,76.6,29.98,SSE,147,1.0,1.0,95,0.00,,,1.04,Wunderground v.1.15,2013-08-03 00:19:00,
2013-08-02 20:25:00,78.2,76.6,29.98,SE,146,1.0,1.0,95,0.00,,,1.04,Wunderground v.1.15,2013-08-03 00:25:00,
2013-08-02 20:35:00,78.1,76.6,29.99,SSE,150,1.0,1.0,95,0.00,,,1.04,Wunderground v.1.15,2013-08-03 00:35:00,
2013-08-02 20:45:00,78.2,76.6,29.99,ESE,113,1.0,1.0,95,0.00,,,1.04,Wunderground v.1.15,2013-08-03 00:45:00,
2013-08-02 20:50:00,78.2,76.6,29.99,SSE,147,1.0,1.0,95,0.00,,,1.04,Wunderground v.1.15,2013-08-03 00:50:00,
2013-08-02 20:59:00,78.2,76.6,29.99,ESE,121,1.0,1.0,95,0.00,,,1.04,Wunderground v.1.15,2013-08-03 00:59:00,
2013-08-02 21:05:00,78.2,76.6,29.99,SE,127,1.0,1.0,95,0.00,,,1.04,Wunderground v.1.15,2013-08-03 01:05:00,
2013-08-02 21:14:00,78.2,76.6,30.00,SSE,153,1.0,1.0,95,0.00,,,1.04,Wunderground v.1.15,2013-08-03 01:14:00,
2013-08-02 21:20:00,78.1,76.6,30.00,SSE,159,1.0,2.0,95,0.00,,,1.04,Wunderground v.1.15,2013-08-03 01:20:00,
2013-08-02 21:30:00,78.1,76.2,29.99,SE,136,1.0,1.0,94,0.00,,,1.04,Wunderground v.1.15,2013-08-03 01:30:00,
2013-08-02 21:40:00,78.1,76.2,30.00,SSE,163,0.0,0.0,94,0.00,,,1.04,Wunderground v.1.15,2013-08-03 01:40:00,
2013-08-02 21:49:00,78.0,76.1,29.99,SSW,206,1.0,1.0,94,0.00,,,1.04,Wunderground v.1.15,2013-08-03 01:49:00,
2013-08-02 21:55:00,78.0,76.1,30.00,SE,133,1.0,1.0,94,0.00,,,1.04,Wunderground v.1.15,2013-08-03 01:55:00,
2013-08-02 22:05:00,78.0,76.1,30.00,SSW,196,1.0,1.0,94,0.00,,,1.04,Wunderground v.1.15,2013-08-03 02:05:00,
2013-08-02 22:15:00,77.9,76.0,30.00,SE,138,1.0,1.0,94,0.00,,,1.04,Wunderground v.1.15,2013-08-03 02:15:00,
2013-08-02 22:24:00,77.8,75.9,30.00,South,179,0.0,1.0,94,0.00,,,1.04,Wunderground v.1.15,2013-08-03 02:24:00,
2013-08-02 22:30:00,77.8,75.9,30.00,South,179,0.0,1.0,94,0.00,,,1.04,Wunderground v.1.15,2013-08-03 02:30:00,
2013-08-02 22:39:00,77.6,75.7,30.00,South,179,0.0,0.0,94,0.00,,,1.04,Wunderground v.1.15,2013-08-03 02:39:00,
2013-08-02 22:45:00,77.5,75.6,30.00,SSW,195,0.0,0.0,94,0.00,,,1.04,Wunderground v.1.15,2013-08-03 02:45:00,
2013-08-02 22:55:00,77.4,75.5,30.00,SE,128,0.0,0.0,94,0.00,,,1.04,Wunderground v.1.15,2013-08-03 02:55:00,
2013-08-02 23:00:00,77.4,75.5,30.00,SE,130,0.0,0.0,94,0.00,,,1.04,Wunderground v.1.15,2013-08-03 03:00:00,
2013-08-02 23:10:00,77.3,75.4,30.00,SE,127,0.0,0.0,94,0.00,,,1.04,Wunderground v.1.15,2013-08-03 03:10:00,
2013-08-02 23:20:00,77.2,75.7,30.00,SSW,198,0.0,0.0,95,0.00,,,1.04,Wunderground v.1.15,2013-08-03 03:20:00,
2013-08-02 23:30:00,77.1,75.6,30.00,South,177,0.0,0.0,95,0.00,,,1.04,Wunderground v.1.15,2013-08-03 03:30:00,
2013-08-02 23:40:00,77.1,75.6,30.01,SW,230,0.0,0.0,95,0.00,,,1.04,Wunderground v.1.15,2013-08-03 03:40:00,
2013-08-02 23:45:00,77.0,75.5,30.01,SW,230,0.0,0.0,95,0.00,,,1.04,Wunderground v.1.15,2013-08-03 03:45:00,
2013-08-02 23:54:00,76.9,75.4,30.01,SW,230,0.0,0.0,95,0.00,,,1.04,Wunderground v.1.15,2013-08-03 03:54:00,